Middleburg, Ohio
Current Conditions -  °F | °C
As of 1:53 PM on Monday 20 Oct 2014 (Local Time) from KMRT Reporting Station
Overcast Overcast  
Wind Chill: 59°   Ceiling: 7000
Heat Index: 59°   Visibility: 10mi
Dew Point: 44°   Wind: 10mph
Humidity: 56%   Direction: 220°SW
Pressure: 29.86"   Gusts: NA
Location:  40.29°N, 83.58°W
Report Text: KMRT 201753Z AUTO 22009KT 10SM BKN070 OVC085 15/06 A2986 RMK AO2 T01500064 10161 20076
Loading
Personal Weather Stations






























Interactive Weather Map
Tropical Storm Tracking
New forecast layout! Learn more

10-Day Weather Forecast

Advertisements
Track Severe Weather on mobile